sensor_id;sensor_type;location;lat;lon;timestamp;temperature;humidity
12115;DHT22;6121;49.810;6.418;2022-09-14T00:00:45;18.90;99.90
12115;DHT22;6121;49.810;6.418;2022-09-14T00:03:12;18.90;99.90
12115;DHT22;6121;49.810;6.418;2022-09-14T00:05:38;18.90;99.90
12115;DHT22;6121;49.810;6.418;2022-09-14T00:08:03;19.00;99.90
12115;DHT22;6121;49.810;6.418;2022-09-14T00:10:29;19.10;99.90
12115;DHT22;6121;49.810;6.418;2022-09-14T00:12:55;19.10;99.90
12115;DHT22;6121;49.810;6.418;2022-09-14T00:15:20;19.10;99.90
12115;DHT22;6121;49.810;6.418;2022-09-14T00:17:46;19.10;99.90
12115;DHT22;6121;49.810;6.418;2022-09-14T00:20:12;19.00;99.90
12115;DHT22;6121;49.810;6.418;2022-09-14T00:22:38;19.00;99.90
12115;DHT22;6121;49.810;6.418;2022-09-14T00:25:04;19.00;99.90
12115;DHT22;6121;49.810;6.418;2022-09-14T00:27:29;19.00;99.90
12115;DHT22;6121;49.810;6.418;2022-09-14T00:29:55;19.00;99.90
12115;DHT22;6121;49.810;6.418;2022-09-14T00:32:20;18.90;99.90
12115;DHT22;6121;49.810;6.418;2022-09-14T00:34:46;18.90;99.90
12115;DHT22;6121;49.810;6.418;2022-09-14T00:37:11;18.80;99.90
12115;DHT22;6121;49.810;6.418;2022-09-14T00:39:37;18.80;99.90
12115;DHT22;6121;49.810;6.418;2022-09-14T00:42:04;18.90;99.90
12115;DHT22;6121;49.810;6.418;2022-09-14T00:47:00;18.90;99.90
12115;DHT22;6121;49.810;6.418;2022-09-14T00:49:31;18.90;99.90
12115;DHT22;6121;49.810;6.418;2022-09-14T00:52:05;18.90;99.90
12115;DHT22;6121;49.810;6.418;2022-09-14T00:54:49;18.90;99.90
12115;DHT22;6121;49.810;6.418;2022-09-14T00:57:16;18.80;99.90
12115;DHT22;6121;49.810;6.418;2022-09-14T00:59:42;18.90;99.90
12115;DHT22;6121;49.810;6.418;2022-09-14T01:02:10;18.90;99.90
12115;DHT22;6121;49.810;6.418;2022-09-14T01:04:36;18.90;99.90
12115;DHT22;6121;49.810;6.418;2022-09-14T01:07:17;18.90;99.90
12115;DHT22;6121;49.810;6.418;2022-09-14T01:21:03;18.70;99.90
12115;DHT22;6121;49.810;6.418;2022-09-14T01:23:47;18.70;99.90
12115;DHT22;6121;49.810;6.418;2022-09-14T01:29:16;18.60;99.90
12115;DHT22;6121;49.810;6.418;2022-09-14T01:34:35;18.50;99.90
12115;DHT22;6121;49.810;6.418;2022-09-14T01:39:41;18.50;99.90
12115;DHT22;6121;49.810;6.418;2022-09-14T01:42:10;18.40;99.90
12115;DHT22;6121;49.810;6.418;2022-09-14T01:44:41;18.50;99.90
12115;DHT22;6121;49.810;6.418;2022-09-14T01:47:19;18.50;99.90
12115;DHT22;6121;49.810;6.418;2022-09-14T01:50:32;18.50;99.90
12115;DHT22;6121;49.810;6.418;2022-09-14T01:55:57;18.70;99.90
12115;DHT22;6121;49.810;6.418;2022-09-14T02:01:02;18.60;99.90
12115;DHT22;6121;49.810;6.418;2022-09-14T02:03:33;18.60;99.90
12115;DHT22;6121;49.810;6.418;2022-09-14T02:08:29;18.40;99.90
12115;DHT22;6121;49.810;6.418;2022-09-14T02:10:56;18.40;99.90
12115;DHT22;6121;49.810;6.418;2022-09-14T02:13:23;18.50;99.90
12115;DHT22;6121;49.810;6.418;2022-09-14T02:15:49;18.60;99.90
12115;DHT22;6121;49.810;6.418;2022-09-14T02:18:15;18.70;99.90
12115;DHT22;6121;49.810;6.418;2022-09-14T02:21:03;18.80;99.90
12115;DHT22;6121;49.810;6.418;2022-09-14T02:23:30;18.70;99.90
12115;DHT22;6121;49.810;6.418;2022-09-14T02:25:57;18.60;99.90
12115;DHT22;6121;49.810;6.418;2022-09-14T02:28:22;18.50;99.90
12115;DHT22;6121;49.810;6.418;2022-09-14T02:30:57;18.50;99.90
12115;DHT22;6121;49.810;6.418;2022-09-14T02:33:42;18.50;99.90
12115;DHT22;6121;49.810;6.418;2022-09-14T02:38:56;18.60;99.90
12115;DHT22;6121;49.810;6.418;2022-09-14T02:44:24;18.50;99.90
12115;DHT22;6121;49.810;6.418;2022-09-14T02:49:55;18.50;99.90
12115;DHT22;6121;49.810;6.418;2022-09-14T02:52:32;18.50;99.90
12115;DHT22;6121;49.810;6.418;2022-09-14T02:55:08;18.50;99.90
12115;DHT22;6121;49.810;6.418;2022-09-14T02:57:57;18.70;99.90
12115;DHT22;6121;49.810;6.418;2022-09-14T03:00:23;18.60;99.90
12115;DHT22;6121;49.810;6.418;2022-09-14T03:02:48;18.60;99.90
12115;DHT22;6121;49.810;6.418;2022-09-14T03:05:14;18.60;99.90
12115;DHT22;6121;49.810;6.418;2022-09-14T03:07:39;18.60;99.90
12115;DHT22;6121;49.810;6.418;2022-09-14T03:10:05;18.70;99.90
12115;DHT22;6121;49.810;6.418;2022-09-14T03:12:31;18.60;99.90
12115;DHT22;6121;49.810;6.418;2022-09-14T03:14:57;18.60;99.90
12115;DHT22;6121;49.810;6.418;2022-09-14T03:17:22;18.60;99.90
12115;DHT22;6121;49.810;6.418;2022-09-14T03:19:48;18.50;99.90
12115;DHT22;6121;49.810;6.418;2022-09-14T03:22:14;18.60;99.90
12115;DHT22;6121;49.810;6.418;2022-09-14T03:24:39;18.50;99.90
12115;DHT22;6121;49.810;6.418;2022-09-14T03:27:05;18.40;99.90
12115;DHT22;6121;49.810;6.418;2022-09-14T03:29:30;18.50;99.90
12115;DHT22;6121;49.810;6.418;2022-09-14T03:31:56;18.50;99.90
12115;DHT22;6121;49.810;6.418;2022-09-14T03:34:22;18.60;99.90
12115;DHT22;6121;49.810;6.418;2022-09-14T03:36:47;18.60;99.90
12115;DHT22;6121;49.810;6.418;2022-09-14T03:39:13;18.60;99.90
12115;DHT22;6121;49.810;6.418;2022-09-14T03:41:38;18.60;99.90
12115;DHT22;6121;49.810;6.418;2022-09-14T03:44:04;18.60;99.90
12115;DHT22;6121;49.810;6.418;2022-09-14T03:46:29;18.60;99.90
12115;DHT22;6121;49.810;6.418;2022-09-14T03:48:55;18.60;99.90
12115;DHT22;6121;49.810;6.418;2022-09-14T03:51:21;18.60;99.90
12115;DHT22;6121;49.810;6.418;2022-09-14T03:53:47;18.60;99.90
12115;DHT22;6121;49.810;6.418;2022-09-14T03:56:16;18.50;99.90
12115;DHT22;6121;49.810;6.418;2022-09-14T03:58:43;18.50;99.90
12115;DHT22;6121;49.810;6.418;2022-09-14T04:01:13;18.50;99.90
12115;DHT22;6121;49.810;6.418;2022-09-14T04:03:39;18.50;99.90
12115;DHT22;6121;49.810;6.418;2022-09-14T04:06:06;18.50;99.90
12115;DHT22;6121;49.810;6.418;2022-09-14T04:08:33;18.50;99.90
12115;DHT22;6121;49.810;6.418;2022-09-14T04:10:59;18.50;99.90
12115;DHT22;6121;49.810;6.418;2022-09-14T04:13:25;18.50;99.90
12115;DHT22;6121;49.810;6.418;2022-09-14T04:15:58;18.60;99.90
12115;DHT22;6121;49.810;6.418;2022-09-14T04:18:24;18.60;99.90
12115;DHT22;6121;49.810;6.418;2022-09-14T04:21:01;18.60;99.90
12115;DHT22;6121;49.810;6.418;2022-09-14T04:23:28;18.60;99.90
12115;DHT22;6121;49.810;6.418;2022-09-14T04:25:54;18.60;99.90
12115;DHT22;6121;49.810;6.418;2022-09-14T04:28:21;18.60;99.90
12115;DHT22;6121;49.810;6.418;2022-09-14T04:30:56;18.70;99.90
12115;DHT22;6121;49.810;6.418;2022-09-14T04:33:22;18.60;99.90
12115;DHT22;6121;49.810;6.418;2022-09-14T04:36:12;18.60;99.90
12115;DHT22;6121;49.810;6.418;2022-09-14T04:38:39;18.50;99.90
12115;DHT22;6121;49.810;6.418;2022-09-14T04:41:07;18.50;99.90
12115;DHT22;6121;49.810;6.418;2022-09-14T04:43:34;18.50;99.90
12115;DHT22;6121;49.810;6.418;2022-09-14T04:46:04;18.50;99.90
12115;DHT22;6121;49.810;6.418;2022-09-14T04:48:31;18.60;99.90
12115;DHT22;6121;49.810;6.418;2022-09-14T04:51:19;18.60;99.90
12115;DHT22;6121;49.810;6.418;2022-09-14T04:53:46;18.70;99.90
12115;DHT22;6121;49.810;6.418;2022-09-14T04:56:13;18.60;99.90
12115;DHT22;6121;49.810;6.418;2022-09-14T04:58:45;18.60;99.90
12115;DHT22;6121;49.810;6.418;2022-09-14T05:01:14;18.50;99.90
12115;DHT22;6121;49.810;6.418;2022-09-14T05:03:41;18.40;99.90
12115;DHT22;6121;49.810;6.418;2022-09-14T05:06:21;18.40;99.90
12115;DHT22;6121;49.810;6.418;2022-09-14T05:08:47;18.30;99.90
12115;DHT22;6121;49.810;6.418;2022-09-14T05:11:19;18.40;99.90
12115;DHT22;6121;49.810;6.418;2022-09-14T05:13:45;18.50;99.90
12115;DHT22;6121;49.810;6.418;2022-09-14T05:16:18;18.50;99.90
12115;DHT22;6121;49.810;6.418;2022-09-14T05:18:45;18.50;99.90
12115;DHT22;6121;49.810;6.418;2022-09-14T05:21:15;18.50;99.90
12115;DHT22;6121;49.810;6.418;2022-09-14T05:23:41;18.60;99.90
12115;DHT22;6121;49.810;6.418;2022-09-14T05:26:07;18.50;99.90
12115;DHT22;6121;49.810;6.418;2022-09-14T05:28:33;18.50;99.90
12115;DHT22;6121;49.810;6.418;2022-09-14T05:31:03;18.50;99.90
12115;DHT22;6121;49.810;6.418;2022-09-14T05:33:29;18.60;99.90
12115;DHT22;6121;49.810;6.418;2022-09-14T05:36:00;18.50;99.90
12115;DHT22;6121;49.810;6.418;2022-09-14T05:38:31;18.50;99.90
12115;DHT22;6121;49.810;6.418;2022-09-14T05:40:57;18.50;99.90
12115;DHT22;6121;49.810;6.418;2022-09-14T05:43:24;18.60;99.90
12115;DHT22;6121;49.810;6.418;2022-09-14T05:45:50;18.50;99.90
12115;DHT22;6121;49.810;6.418;2022-09-14T05:48:16;18.60;99.90
12115;DHT22;6121;49.810;6.418;2022-09-14T05:50:42;18.60;99.90
12115;DHT22;6121;49.810;6.418;2022-09-14T05:53:07;18.60;99.90
12115;DHT22;6121;49.810;6.418;2022-09-14T05:55:33;18.50;99.90
12115;DHT22;6121;49.810;6.418;2022-09-14T05:57:59;18.50;99.90
12115;DHT22;6121;49.810;6.418;2022-09-14T06:00:24;18.50;99.90
12115;DHT22;6121;49.810;6.418;2022-09-14T06:02:52;18.60;99.90
12115;DHT22;6121;49.810;6.418;2022-09-14T06:05:19;18.60;99.90
12115;DHT22;6121;49.810;6.418;2022-09-14T06:07:50;18.50;99.90
12115;DHT22;6121;49.810;6.418;2022-09-14T06:10:16;18.40;99.90
12115;DHT22;6121;49.810;6.418;2022-09-14T06:12:42;18.40;99.90
12115;DHT22;6121;49.810;6.418;2022-09-14T06:15:08;18.50;99.90
12115;DHT22;6121;49.810;6.418;2022-09-14T06:17:35;18.60;99.90
12115;DHT22;6121;49.810;6.418;2022-09-14T06:20:01;18.60;99.90
12115;DHT22;6121;49.810;6.418;2022-09-14T06:22:27;18.60;99.90
12115;DHT22;6121;49.810;6.418;2022-09-14T06:24:53;18.60;99.90
12115;DHT22;6121;49.810;6.418;2022-09-14T06:27:18;18.60;99.90
12115;DHT22;6121;49.810;6.418;2022-09-14T06:29:44;18.60;99.90
12115;DHT22;6121;49.810;6.418;2022-09-14T06:32:09;18.60;99.90
12115;DHT22;6121;49.810;6.418;2022-09-14T06:34:35;18.70;99.90
12115;DHT22;6121;49.810;6.418;2022-09-14T06:37:00;18.70;99.90
12115;DHT22;6121;49.810;6.418;2022-09-14T06:39:26;18.80;99.90
12115;DHT22;6121;49.810;6.418;2022-09-14T06:41:52;18.90;99.90
12115;DHT22;6121;49.810;6.418;2022-09-14T06:44:18;18.90;99.90
12115;DHT22;6121;49.810;6.418;2022-09-14T06:46:44;19.00;99.90
12115;DHT22;6121;49.810;6.418;2022-09-14T06:49:12;18.90;99.90
12115;DHT22;6121;49.810;6.418;2022-09-14T06:51:43;19.00;99.90
12115;DHT22;6121;49.810;6.418;2022-09-14T06:54:12;19.10;99.90
12115;DHT22;6121;49.810;6.418;2022-09-14T06:56:39;19.10;99.90
12115;DHT22;6121;49.810;6.418;2022-09-14T06:59:07;19.10;99.90
12115;DHT22;6121;49.810;6.418;2022-09-14T07:01:33;19.20;99.90
12115;DHT22;6121;49.810;6.418;2022-09-14T07:03:59;19.30;99.90
12115;DHT22;6121;49.810;6.418;2022-09-14T07:06:29;19.30;99.90
12115;DHT22;6121;49.810;6.418;2022-09-14T07:08:55;19.30;99.90
12115;DHT22;6121;49.810;6.418;2022-09-14T07:11:26;19.30;99.90
12115;DHT22;6121;49.810;6.418;2022-09-14T07:13:53;19.40;99.90
12115;DHT22;6121;49.810;6.418;2022-09-14T07:16:20;19.50;99.90
12115;DHT22;6121;49.810;6.418;2022-09-14T07:18:46;19.60;99.90
12115;DHT22;6121;49.810;6.418;2022-09-14T07:21:16;19.60;99.90
12115;DHT22;6121;49.810;6.418;2022-09-14T07:23:44;19.50;99.90
12115;DHT22;6121;49.810;6.418;2022-09-14T07:26:21;19.70;99.90
12115;DHT22;6121;49.810;6.418;2022-09-14T07:28:49;19.60;99.90
12115;DHT22;6121;49.810;6.418;2022-09-14T07:31:24;19.60;99.90
12115;DHT22;6121;49.810;6.418;2022-09-14T07:33:58;19.50;99.90
12115;DHT22;6121;49.810;6.418;2022-09-14T07:36:25;19.40;99.90
12115;DHT22;6121;49.810;6.418;2022-09-14T07:38:51;19.40;99.90
12115;DHT22;6121;49.810;6.418;2022-09-14T07:41:17;19.50;99.90
12115;DHT22;6121;49.810;6.418;2022-09-14T07:43:43;19.60;99.90
12115;DHT22;6121;49.810;6.418;2022-09-14T07:46:12;19.70;99.90
12115;DHT22;6121;49.810;6.418;2022-09-14T07:48:37;19.60;99.90
12115;DHT22;6121;49.810;6.418;2022-09-14T07:51:06;19.50;99.90
12115;DHT22;6121;49.810;6.418;2022-09-14T07:53:34;19.50;99.90
12115;DHT22;6121;49.810;6.418;2022-09-14T07:56:01;19.50;99.90
12115;DHT22;6121;49.810;6.418;2022-09-14T07:58:27;19.60;99.90
12115;DHT22;6121;49.810;6.418;2022-09-14T08:01:08;19.80;99.90
12115;DHT22;6121;49.810;6.418;2022-09-14T08:03:35;19.90;99.90
12115;DHT22;6121;49.810;6.418;2022-09-14T08:06:04;19.80;99.90
12115;DHT22;6121;49.810;6.418;2022-09-14T08:08:35;19.80;99.90
12115;DHT22;6121;49.810;6.418;2022-09-14T08:11:05;19.80;99.90
12115;DHT22;6121;49.810;6.418;2022-09-14T08:13:33;19.80;99.90
12115;DHT22;6121;49.810;6.418;2022-09-14T08:15:59;20.00;99.90
12115;DHT22;6121;49.810;6.418;2022-09-14T08:18:29;20.00;99.90
12115;DHT22;6121;49.810;6.418;2022-09-14T08:20:55;20.10;99.90
12115;DHT22;6121;49.810;6.418;2022-09-14T08:23:22;20.20;99.90
12115;DHT22;6121;49.810;6.418;2022-09-14T08:25:47;20.40;99.90
12115;DHT22;6121;49.810;6.418;2022-09-14T08:28:13;20.40;99.90
12115;DHT22;6121;49.810;6.418;2022-09-14T08:30:39;20.50;99.90
12115;DHT22;6121;49.810;6.418;2022-09-14T08:33:05;20.60;99.90
12115;DHT22;6121;49.810;6.418;2022-09-14T08:35:30;20.40;99.90
12115;DHT22;6121;49.810;6.418;2022-09-14T08:37:56;20.40;99.90
12115;DHT22;6121;49.810;6.418;2022-09-14T08:40:21;20.50;99.90
12115;DHT22;6121;49.810;6.418;2022-09-14T08:42:47;20.60;99.90
12115;DHT22;6121;49.810;6.418;2022-09-14T08:45:15;20.70;99.90
12115;DHT22;6121;49.810;6.418;2022-09-14T08:47:42;20.80;99.90
12115;DHT22;6121;49.810;6.418;2022-09-14T08:50:16;20.80;99.90
12115;DHT22;6121;49.810;6.418;2022-09-14T08:52:47;20.90;99.90
12115;DHT22;6121;49.810;6.418;2022-09-14T08:55:33;20.80;99.90
12115;DHT22;6121;49.810;6.418;2022-09-14T09:00:55;20.80;99.90
12115;DHT22;6121;49.810;6.418;2022-09-14T09:03:42;21.00;99.90
12115;DHT22;6121;49.810;6.418;2022-09-14T09:11:54;21.40;99.90
12115;DHT22;6121;49.810;6.418;2022-09-14T09:14:37;21.50;99.90
12115;DHT22;6121;49.810;6.418;2022-09-14T09:17:12;21.60;99.90
12115;DHT22;6121;49.810;6.418;2022-09-14T09:22:44;21.40;99.90
12115;DHT22;6121;49.810;6.418;2022-09-14T09:25:19;21.40;99.90
12115;DHT22;6121;49.810;6.418;2022-09-14T09:27:53;21.30;99.90
12115;DHT22;6121;49.810;6.418;2022-09-14T09:30:18;21.20;99.90
12115;DHT22;6121;49.810;6.418;2022-09-14T09:32:44;21.30;99.90
12115;DHT22;6121;49.810;6.418;2022-09-14T09:35:18;21.40;99.90
12115;DHT22;6121;49.810;6.418;2022-09-14T09:37:46;21.60;99.90
12115;DHT22;6121;49.810;6.418;2022-09-14T09:40:35;22.00;99.90
12115;DHT22;6121;49.810;6.418;2022-09-14T09:43:13;22.10;99.90
12115;DHT22;6121;49.810;6.418;2022-09-14T09:48:17;22.10;99.90
12115;DHT22;6121;49.810;6.418;2022-09-14T09:51:47;22.10;99.90
12115;DHT22;6121;49.810;6.418;2022-09-14T09:53:48;22.00;99.90
12115;DHT22;6121;49.810;6.418;2022-09-14T09:56:26;22.40;99.90
12115;DHT22;6121;49.810;6.418;2022-09-14T09:58:53;22.80;99.90
12115;DHT22;6121;49.810;6.418;2022-09-14T10:01:36;22.80;99.90
12115;DHT22;6121;49.810;6.418;2022-09-14T10:04:16;23.40;99.90
12115;DHT22;6121;49.810;6.418;2022-09-14T10:06:47;23.80;99.90
12115;DHT22;6121;49.810;6.418;2022-09-14T10:09:24;23.70;99.90
12115;DHT22;6121;49.810;6.418;2022-09-14T10:12:01;23.70;99.90
12115;DHT22;6121;49.810;6.418;2022-09-14T10:14:32;23.50;99.90
12115;DHT22;6121;49.810;6.418;2022-09-14T10:17:06;23.50;99.90
12115;DHT22;6121;49.810;6.418;2022-09-14T10:19:39;24.40;99.90
12115;DHT22;6121;49.810;6.418;2022-09-14T10:22:17;24.20;99.90
12115;DHT22;6121;49.810;6.418;2022-09-14T10:25:07;24.30;99.90
12115;DHT22;6121;49.810;6.418;2022-09-14T10:27:46;24.90;99.90
12115;DHT22;6121;49.810;6.418;2022-09-14T10:30:19;26.10;99.90
12115;DHT22;6121;49.810;6.418;2022-09-14T10:35:53;30.70;99.90
12115;DHT22;6121;49.810;6.418;2022-09-14T10:41:19;32.40;99.90
12115;DHT22;6121;49.810;6.418;2022-09-14T10:44:24;33.20;99.90
12115;DHT22;6121;49.810;6.418;2022-09-14T10:46:55;29.90;99.90
12115;DHT22;6121;49.810;6.418;2022-09-14T10:49:35;28.10;99.90
12115;DHT22;6121;49.810;6.418;2022-09-14T10:54:58;26.30;99.90
12115;DHT22;6121;49.810;6.418;2022-09-14T10:57:46;25.50;99.90
12115;DHT22;6121;49.810;6.418;2022-09-14T11:00:17;25.00;99.90
12115;DHT22;6121;49.810;6.418;2022-09-14T11:16:06;24.00;99.90
12115;DHT22;6121;49.810;6.418;2022-09-14T11:18:41;23.70;99.90
12115;DHT22;6121;49.810;6.418;2022-09-14T11:24:10;23.60;99.90
12115;DHT22;6121;49.810;6.418;2022-09-14T11:29:36;23.40;99.90
12115;DHT22;6121;49.810;6.418;2022-09-14T11:32:14;23.30;99.90
12115;DHT22;6121;49.810;6.418;2022-09-14T11:34:48;23.40;99.90
12115;DHT22;6121;49.810;6.418;2022-09-14T11:37:30;24.00;99.90
12115;DHT22;6121;49.810;6.418;2022-09-14T11:40:06;25.20;99.90
12115;DHT22;6121;49.810;6.418;2022-09-14T11:42:42;26.20;99.90
12115;DHT22;6121;49.810;6.418;2022-09-14T11:45:22;26.90;99.90
12115;DHT22;6121;49.810;6.418;2022-09-14T11:48:06;27.20;99.90
12115;DHT22;6121;49.810;6.418;2022-09-14T11:50:33;26.80;99.90
12115;DHT22;6121;49.810;6.418;2022-09-14T11:53:12;26.40;99.90
12115;DHT22;6121;49.810;6.418;2022-09-14T11:55:49;25.90;99.90
12115;DHT22;6121;49.810;6.418;2022-09-14T11:58:24;25.80;99.90
12115;DHT22;6121;49.810;6.418;2022-09-14T12:01:23;25.70;99.90
12115;DHT22;6121;49.810;6.418;2022-09-14T12:19:38;24.50;99.90
12115;DHT22;6121;49.810;6.418;2022-09-14T12:25:17;24.30;99.90
12115;DHT22;6121;49.810;6.418;2022-09-14T12:27:45;24.30;99.90
12115;DHT22;6121;49.810;6.418;2022-09-14T12:32:59;24.10;99.90
12115;DHT22;6121;49.810;6.418;2022-09-14T12:35:34;24.00;99.90
12115;DHT22;6121;49.810;6.418;2022-09-14T12:38:38;23.90;99.90
12115;DHT22;6121;49.810;6.418;2022-09-14T13:04:31;22.10;99.90
12115;DHT22;6121;49.810;6.418;2022-09-14T13:07:00;22.00;99.90
12115;DHT22;6121;49.810;6.418;2022-09-14T13:09:27;22.00;99.90
12115;DHT22;6121;49.810;6.418;2022-09-14T13:11:59;21.90;99.90
12115;DHT22;6121;49.810;6.418;2022-09-14T13:14:38;21.80;99.90
12115;DHT22;6121;49.810;6.418;2022-09-14T13:17:13;21.70;99.90
12115;DHT22;6121;49.810;6.418;2022-09-14T13:19:39;21.60;99.90
12115;DHT22;6121;49.810;6.418;2022-09-14T13:22:17;21.70;99.90
12115;DHT22;6121;49.810;6.418;2022-09-14T13:24:45;21.70;99.90
12115;DHT22;6121;49.810;6.418;2022-09-14T13:27:28;21.60;99.90
12115;DHT22;6121;49.810;6.418;2022-09-14T13:30:03;21.50;99.90
12115;DHT22;6121;49.810;6.418;2022-09-14T13:32:30;21.40;99.90
12115;DHT22;6121;49.810;6.418;2022-09-14T13:34:58;21.50;99.90
12115;DHT22;6121;49.810;6.418;2022-09-14T13:37:24;21.60;99.90
12115;DHT22;6121;49.810;6.418;2022-09-14T13:39:52;21.60;99.90
12115;DHT22;6121;49.810;6.418;2022-09-14T13:42:19;21.70;99.90
12115;DHT22;6121;49.810;6.418;2022-09-14T13:44:47;21.90;99.90
12115;DHT22;6121;49.810;6.418;2022-09-14T13:47:21;21.80;99.90
12115;DHT22;6121;49.810;6.418;2022-09-14T13:49:48;21.60;99.90
12115;DHT22;6121;49.810;6.418;2022-09-14T13:54:47;21.80;99.90
12115;DHT22;6121;49.810;6.418;2022-09-14T13:57:18;21.80;99.90
12115;DHT22;6121;49.810;6.418;2022-09-14T14:02:35;22.10;99.90
12115;DHT22;6121;49.810;6.418;2022-09-14T14:05:02;22.10;99.90
12115;DHT22;6121;49.810;6.418;2022-09-14T14:07:31;22.10;99.90
12115;DHT22;6121;49.810;6.418;2022-09-14T14:09:58;22.10;99.90
12115;DHT22;6121;49.810;6.418;2022-09-14T14:12:28;22.30;99.90
12115;DHT22;6121;49.810;6.418;2022-09-14T14:15:03;22.30;99.90
12115;DHT22;6121;49.810;6.418;2022-09-14T14:17:36;22.50;99.90
12115;DHT22;6121;49.810;6.418;2022-09-14T14:20:34;22.60;99.90
12115;DHT22;6121;49.810;6.418;2022-09-14T14:25:41;22.80;99.90
12115;DHT22;6121;49.810;6.418;2022-09-14T14:28:34;22.70;99.90
12115;DHT22;6121;49.810;6.418;2022-09-14T14:31:00;22.70;99.90
12115;DHT22;6121;49.810;6.418;2022-09-14T14:33:34;22.80;99.90
12115;DHT22;6121;49.810;6.418;2022-09-14T14:36:01;22.70;99.90
12115;DHT22;6121;49.810;6.418;2022-09-14T14:38:33;22.60;99.90
12115;DHT22;6121;49.810;6.418;2022-09-14T14:40:59;22.50;99.90
12115;DHT22;6121;49.810;6.418;2022-09-14T14:43:25;22.60;99.90
12115;DHT22;6121;49.810;6.418;2022-09-14T14:45:59;22.70;99.90
12115;DHT22;6121;49.810;6.418;2022-09-14T14:48:26;22.90;99.90
12115;DHT22;6121;49.810;6.418;2022-09-14T14:50:52;23.20;99.90
12115;DHT22;6121;49.810;6.418;2022-09-14T14:53:23;23.20;99.90
12115;DHT22;6121;49.810;6.418;2022-09-14T14:55:49;23.20;99.90
12115;DHT22;6121;49.810;6.418;2022-09-14T14:58:16;23.30;99.90
12115;DHT22;6121;49.810;6.418;2022-09-14T15:00:43;23.30;99.90
12115;DHT22;6121;49.810;6.418;2022-09-14T15:03:09;23.30;99.90
12115;DHT22;6121;49.810;6.418;2022-09-14T15:05:39;23.00;99.90
12115;DHT22;6121;49.810;6.418;2022-09-14T15:08:04;22.60;99.90
12115;DHT22;6121;49.810;6.418;2022-09-14T15:10:30;22.30;99.90
12115;DHT22;6121;49.810;6.418;2022-09-14T15:12:55;22.20;99.90
12115;DHT22;6121;49.810;6.418;2022-09-14T15:15:23;21.90;99.90
12115;DHT22;6121;49.810;6.418;2022-09-14T15:17:49;21.70;99.90
12115;DHT22;6121;49.810;6.418;2022-09-14T15:20:15;21.70;99.90
12115;DHT22;6121;49.810;6.418;2022-09-14T15:22:43;21.60;99.90
12115;DHT22;6121;49.810;6.418;2022-09-14T15:25:10;21.20;99.90
12115;DHT22;6121;49.810;6.418;2022-09-14T15:27:36;21.20;99.90
12115;DHT22;6121;49.810;6.418;2022-09-14T15:30:03;21.20;99.90
12115;DHT22;6121;49.810;6.418;2022-09-14T15:32:29;21.10;99.90
12115;DHT22;6121;49.810;6.418;2022-09-14T15:34:55;21.00;99.90
12115;DHT22;6121;49.810;6.418;2022-09-14T15:37:20;21.00;99.90
12115;DHT22;6121;49.810;6.418;2022-09-14T15:39:46;20.90;99.90
12115;DHT22;6121;49.810;6.418;2022-09-14T15:42:15;20.70;99.90
12115;DHT22;6121;49.810;6.418;2022-09-14T15:44:41;20.60;99.90
12115;DHT22;6121;49.810;6.418;2022-09-14T15:47:07;20.60;99.90
12115;DHT22;6121;49.810;6.418;2022-09-14T15:49:33;20.60;99.90
12115;DHT22;6121;49.810;6.418;2022-09-14T15:51:59;20.60;99.90
12115;DHT22;6121;49.810;6.418;2022-09-14T15:54:30;20.50;99.90
12115;DHT22;6121;49.810;6.418;2022-09-14T15:56:57;20.40;99.90
12115;DHT22;6121;49.810;6.418;2022-09-14T15:59:25;20.30;99.90
12115;DHT22;6121;49.810;6.418;2022-09-14T16:01:51;20.20;99.90
12115;DHT22;6121;49.810;6.418;2022-09-14T16:04:17;20.10;99.90
12115;DHT22;6121;49.810;6.418;2022-09-14T16:06:43;20.20;99.90
12115;DHT22;6121;49.810;6.418;2022-09-14T16:09:11;20.30;99.90
12115;DHT22;6121;49.810;6.418;2022-09-14T16:11:37;20.30;99.90
12115;DHT22;6121;49.810;6.418;2022-09-14T16:14:04;20.40;99.90
12115;DHT22;6121;49.810;6.418;2022-09-14T16:16:30;20.40;99.90
12115;DHT22;6121;49.810;6.418;2022-09-14T16:18:56;20.50;99.90
12115;DHT22;6121;49.810;6.418;2022-09-14T16:21:24;20.30;99.90
12115;DHT22;6121;49.810;6.418;2022-09-14T16:23:57;20.30;99.90
12115;DHT22;6121;49.810;6.418;2022-09-14T16:26:25;20.10;99.90
12115;DHT22;6121;49.810;6.418;2022-09-14T16:28:52;20.00;99.90
12115;DHT22;6121;49.810;6.418;2022-09-14T16:31:23;19.90;99.90
12115;DHT22;6121;49.810;6.418;2022-09-14T16:33:51;20.00;99.90
12115;DHT22;6121;49.810;6.418;2022-09-14T16:36:20;20.00;99.90
12115;DHT22;6121;49.810;6.418;2022-09-14T16:38:46;20.00;99.90
12115;DHT22;6121;49.810;6.418;2022-09-14T16:41:13;19.90;99.90
12115;DHT22;6121;49.810;6.418;2022-09-14T16:43:39;19.90;99.90
12115;DHT22;6121;49.810;6.418;2022-09-14T16:46:07;20.00;99.90
12115;DHT22;6121;49.810;6.418;2022-09-14T16:48:34;20.00;99.90
12115;DHT22;6121;49.810;6.418;2022-09-14T16:51:01;19.90;99.90
12115;DHT22;6121;49.810;6.418;2022-09-14T16:53:29;19.90;99.90
12115;DHT22;6121;49.810;6.418;2022-09-14T16:56:02;19.90;99.90
12115;DHT22;6121;49.810;6.418;2022-09-14T16:58:29;19.80;99.90
12115;DHT22;6121;49.810;6.418;2022-09-14T17:00:55;19.70;99.90
12115;DHT22;6121;49.810;6.418;2022-09-14T17:03:21;19.80;99.90
12115;DHT22;6121;49.810;6.418;2022-09-14T17:05:47;19.80;99.90
12115;DHT22;6121;49.810;6.418;2022-09-14T17:08:13;19.80;99.90
12115;DHT22;6121;49.810;6.418;2022-09-14T17:10:38;19.80;99.90
12115;DHT22;6121;49.810;6.418;2022-09-14T17:13:04;19.80;99.90
12115;DHT22;6121;49.810;6.418;2022-09-14T17:15:30;19.70;99.90
12115;DHT22;6121;49.810;6.418;2022-09-14T17:17:55;19.80;99.90
12115;DHT22;6121;49.810;6.418;2022-09-14T17:20:21;19.80;99.90
12115;DHT22;6121;49.810;6.418;2022-09-14T17:22:47;19.60;99.90
12115;DHT22;6121;49.810;6.418;2022-09-14T17:25:12;19.40;99.90
12115;DHT22;6121;49.810;6.418;2022-09-14T17:27:38;19.40;99.90
12115;DHT22;6121;49.810;6.418;2022-09-14T17:30:05;19.60;99.90
12115;DHT22;6121;49.810;6.418;2022-09-14T17:32:30;19.50;99.90
12115;DHT22;6121;49.810;6.418;2022-09-14T17:34:57;19.40;99.90
12115;DHT22;6121;49.810;6.418;2022-09-14T17:37:23;19.50;99.90
12115;DHT22;6121;49.810;6.418;2022-09-14T17:39:49;19.30;99.90
12115;DHT22;6121;49.810;6.418;2022-09-14T17:42:15;19.40;99.90
12115;DHT22;6121;49.810;6.418;2022-09-14T17:44:40;19.40;99.90
12115;DHT22;6121;49.810;6.418;2022-09-14T17:47:06;19.30;99.90
12115;DHT22;6121;49.810;6.418;2022-09-14T17:49:31;19.30;99.90
12115;DHT22;6121;49.810;6.418;2022-09-14T17:51:57;19.40;99.90
12115;DHT22;6121;49.810;6.418;2022-09-14T17:54:22;19.10;99.90
12115;DHT22;6121;49.810;6.418;2022-09-14T17:56:48;19.10;99.90
12115;DHT22;6121;49.810;6.418;2022-09-14T17:59:16;19.20;99.90
12115;DHT22;6121;49.810;6.418;2022-09-14T18:01:44;19.30;99.90
12115;DHT22;6121;49.810;6.418;2022-09-14T18:04:11;19.40;99.90
12115;DHT22;6121;49.810;6.418;2022-09-14T18:06:39;19.30;99.90
12115;DHT22;6121;49.810;6.418;2022-09-14T18:09:09;19.20;99.90
12115;DHT22;6121;49.810;6.418;2022-09-14T18:11:35;19.10;99.90
12115;DHT22;6121;49.810;6.418;2022-09-14T18:14:02;19.20;99.90